createdAt,value
2022-08-07T00:02:35.285Z,61.78
2022-08-07T00:04:04.418Z,59.94
2022-08-07T00:06:33.886Z,58.68
2022-08-07T00:09:16.712Z,61.96
2022-08-07T00:11:48.125Z,63.41
2022-08-07T00:14:25.415Z,62.81
2022-08-07T00:16:57.768Z,60.10
2022-08-07T00:19:25.954Z,62.17
2022-08-07T00:22:02.294Z,61.14
2022-08-07T00:24:31.753Z,59.34
2022-08-07T00:27:07.136Z,62.99
2022-08-07T00:29:37.215Z,62.83
2022-08-07T00:32:06.908Z,60.18
2022-08-07T00:34:35.450Z,60.28
2022-08-07T00:37:05.123Z,57.41
2022-08-07T00:39:34.703Z,56.53
2022-08-07T00:42:05.323Z,55.23
2022-08-07T00:44:33.764Z,55.49
2022-08-07T00:47:06.525Z,54.45
2022-08-07T00:50:19.535Z,54.56
2022-08-07T00:52:30.215Z,54.35
2022-08-07T00:55:04.759Z,53.48
2022-08-07T00:57:37.712Z,53.52
2022-08-07T01:00:11.943Z,55.50
2022-08-07T01:02:39.714Z,54.35
2022-08-07T01:05:18.746Z,55.41
2022-08-07T01:07:46.661Z,56.45
2022-08-07T01:10:18.399Z,55.50
2022-08-07T01:12:53.989Z,60.50
2022-08-07T01:15:22.824Z,57.64
2022-08-07T01:18:03.666Z,57.19
2022-08-07T01:20:43.912Z,62.16
2022-08-07T01:23:34.692Z,64.64
2022-08-07T01:26:06.094Z,61.24
2022-08-07T01:28:33.324Z,61.57
2022-08-07T01:31:01.678Z,58.96
2022-08-07T01:33:55.191Z,61.25
2022-08-07T01:36:17.210Z,58.98
2022-08-07T01:38:44.291Z,59.32
2022-08-07T01:41:11.932Z,59.45
2022-08-07T01:43:53.727Z,57.38
2022-08-07T01:46:21.338Z,62.11
2022-08-07T01:48:49.188Z,59.24
2022-08-07T01:52:01.340Z,59.73
2022-08-07T01:54:12.391Z,59.15
2022-08-07T01:56:49.344Z,61.05
2022-08-07T01:59:30.876Z,63.72
2022-08-07T02:02:06.759Z,62.96
2022-08-07T02:04:55.620Z,63.28
2022-08-07T02:07:35.937Z,65.02
2022-08-07T02:10:14.695Z,64.84
2022-08-07T02:12:43.084Z,64.03
2022-08-07T02:15:14.699Z,61.46
2022-08-07T02:17:49.847Z,61.52
2022-08-07T02:20:23.905Z,59.70
2022-08-07T02:22:59.550Z,60.71
2022-08-07T02:26:10.371Z,58.56
2022-08-07T02:28:24.563Z,60.53
2022-08-07T02:30:53.328Z,59.81
2022-08-07T02:33:20.617Z,60.62
2022-08-07T02:36:28.755Z,60.32
2022-08-07T02:38:39.163Z,57.84
2022-08-07T02:41:21.819Z,59.18
2022-08-07T02:43:49.515Z,59.76
2022-08-07T02:46:18.805Z,58.21
2022-08-07T02:48:54.747Z,58.55
2022-08-07T02:51:41.899Z,60.95
2022-08-07T02:54:09.843Z,62.61
2022-08-07T02:56:40.398Z,65.03
2022-08-07T02:59:11.788Z,64.97
2022-08-07T03:01:40.372Z,64.45
2022-08-07T03:04:12.909Z,62.47
2022-08-07T03:06:45.967Z,63.53
2022-08-07T03:09:41.852Z,63.63
2022-08-07T03:12:07.981Z,65.88
2022-08-07T03:14:39.933Z,64.19
2022-08-07T03:17:08.651Z,64.44
2022-08-07T03:19:37.101Z,63.31
2022-08-07T03:22:05.833Z,66.57
2022-08-07T03:24:34.263Z,66.53
2022-08-07T03:27:05.446Z,66.16
2022-08-07T03:29:46.030Z,68.56
2022-08-07T03:32:19.501Z,71.41
2022-08-07T03:35:01.077Z,71.11
2022-08-07T03:37:46.343Z,74.65
2022-08-07T03:40:20.774Z,77.28
2022-08-07T03:42:50.842Z,80.58
2022-08-07T03:45:30.285Z,80.48
2022-08-07T03:47:59.175Z,78.30
2022-08-07T03:50:28.604Z,76.30
2022-08-07T03:52:58.315Z,75.57
2022-08-07T03:55:57.763Z,75.38
2022-08-07T03:59:05.150Z,73.38
2022-08-07T04:01:00.469Z,75.12
2022-08-07T04:03:27.574Z,73.96
2022-08-07T04:06:10.185Z,74.42
2022-08-07T04:08:57.492Z,70.17
2022-08-07T04:12:23.581Z,69.75
2022-08-07T04:14:37.794Z,70.37
2022-08-07T04:16:59.748Z,69.68
2022-08-07T04:19:51.080Z,69.13
2022-08-07T04:22:18.008Z,67.12
2022-08-07T04:24:46.265Z,70.26
2022-08-07T04:27:15.223Z,65.91
2022-08-07T04:30:02.381Z,66.67
2022-08-07T04:32:34.585Z,67.11
2022-08-07T04:35:05.599Z,66.14
2022-08-07T04:38:01.060Z,63.64
2022-08-07T04:40:20.451Z,66.74
2022-08-07T04:42:51.785Z,65.18
2022-08-07T04:45:52.085Z,65.61
2022-08-07T04:48:40.293Z,64.03
2022-08-07T04:51:18.309Z,63.55
2022-08-07T04:54:06.018Z,63.96
2022-08-07T04:58:12.865Z,63.14
2022-08-07T05:00:10.823Z,66.22
2022-08-07T05:03:38.681Z,63.91
2022-08-07T05:06:19.649Z,62.46
2022-08-07T05:09:14.435Z,60.19
2022-08-07T05:11:58.835Z,58.51
2022-08-07T05:14:52.168Z,59.10
2022-08-07T05:17:52.932Z,60.55
2022-08-07T05:20:16.978Z,57.40
2022-08-07T05:22:46.449Z,61.16
2022-08-07T05:25:25.884Z,60.00
2022-08-07T05:28:20.109Z,57.90
2022-08-07T05:30:48.538Z,57.22
2022-08-07T05:33:16.043Z,57.28
2022-08-07T05:35:46.003Z,59.42
2022-08-07T05:39:00.981Z,57.13
2022-08-07T05:41:05.314Z,55.27
2022-08-07T05:43:49.569Z,57.11
2022-08-07T05:46:27.441Z,55.12
2022-08-07T05:48:58.162Z,54.60
2022-08-07T05:51:31.542Z,56.33
2022-08-07T05:54:12.677Z,57.98
2022-08-07T05:56:51.334Z,57.29
2022-08-07T05:59:19.886Z,58.00
2022-08-07T06:01:49.004Z,56.37
2022-08-07T06:04:17.561Z,58.51
2022-08-07T06:06:46.399Z,56.21
2022-08-07T06:09:15.800Z,53.71
2022-08-07T06:11:43.741Z,56.37
2022-08-07T06:14:21.350Z,57.27
2022-08-07T06:16:57.143Z,55.62
2022-08-07T06:19:57.590Z,55.19
2022-08-07T06:22:22.870Z,56.23
2022-08-07T06:24:56.797Z,57.47
2022-08-07T06:28:00.516Z,55.54
2022-08-07T06:30:24.308Z,53.84
2022-08-07T06:33:00.069Z,52.73
2022-08-07T06:35:39.059Z,53.08
2022-08-07T06:38:20.657Z,52.22
2022-08-07T06:40:51.982Z,50.08
2022-08-07T06:43:22.462Z,51.18
2022-08-07T06:45:50.889Z,50.52
2022-08-07T06:48:25.079Z,47.14
2022-08-07T06:50:54.106Z,50.19
2022-08-07T06:55:29.248Z,52.33
2022-08-07T06:56:15.434Z,48.34
2022-08-07T07:00:12.088Z,49.75
2022-08-07T07:01:41.859Z,48.83
2022-08-07T07:04:28.221Z,48.83
2022-08-07T07:07:01.292Z,46.05
2022-08-07T07:09:31.279Z,47.73
2022-08-07T07:12:09.953Z,45.67
2022-08-07T07:15:04.150Z,48.92
2022-08-07T07:17:54.760Z,47.11
2022-08-07T07:20:30.282Z,45.51
2022-08-07T07:24:06.627Z,47.47
2022-08-07T07:26:34.133Z,45.47
2022-08-07T07:29:55.842Z,43.56
2022-08-07T07:31:48.439Z,44.83
2022-08-07T07:34:20.379Z,43.60
2022-08-07T07:36:54.035Z,42.83
2022-08-07T07:39:23.102Z,42.06
2022-08-07T07:42:13.080Z,42.64
2022-08-07T07:44:42.666Z,40.80
2022-08-07T07:47:15.923Z,41.80
2022-08-07T07:50:36.641Z,40.96
2022-08-07T07:52:38.317Z,41.75
2022-08-07T07:55:07.831Z,39.91
2022-08-07T07:57:50.516Z,40.21
2022-08-07T08:00:29.675Z,38.90
2022-08-07T08:03:08.256Z,36.42
2022-08-07T08:05:50.875Z,38.28
2022-08-07T08:08:35.238Z,39.95
2022-08-07T08:11:05.619Z,39.45
2022-08-07T08:13:54.365Z,37.10
2022-08-07T08:16:30.059Z,37.67
2022-08-07T08:19:00.258Z,41.52
2022-08-07T08:22:03.130Z,40.99
2022-08-07T08:24:57.308Z,40.82
2022-08-07T08:27:40.885Z,37.60
2022-08-07T08:30:24.987Z,35.19
2022-08-07T08:32:54.745Z,37.32
2022-08-07T08:35:28.553Z,38.65
2022-08-07T08:38:00.789Z,37.75
2022-08-07T08:40:38.170Z,37.85
2022-08-07T08:43:09.646Z,38.20
2022-08-07T08:46:00.816Z,36.31
2022-08-07T08:48:38.377Z,37.81
2022-08-07T08:52:14.033Z,38.39
2022-08-07T08:54:43.602Z,40.09
2022-08-07T08:57:45.132Z,36.72
2022-08-07T09:00:12.881Z,35.06
2022-08-07T09:02:57.706Z,36.52
2022-08-07T09:05:46.104Z,36.06
2022-08-07T09:08:28.505Z,32.60
2022-08-07T09:11:24.831Z,35.44
2022-08-07T09:14:14.951Z,38.79
2022-08-07T09:16:47.838Z,33.52
2022-08-07T09:19:52.601Z,31.91
2022-08-07T09:24:32.369Z,31.87
2022-08-07T09:25:59.471Z,29.97
2022-08-07T09:30:01.486Z,31.67
2022-08-07T09:31:38.677Z,31.20
2022-08-07T09:34:16.775Z,35.38
2022-08-07T09:37:12.070Z,32.68
2022-08-07T09:39:54.190Z,32.64
2022-08-07T09:42:35.444Z,31.27
2022-08-07T09:47:42.382Z,32.94
2022-08-07T09:48:11.349Z,36.00
2022-08-07T09:51:25.951Z,36.75
2022-08-07T09:54:02.033Z,36.89
2022-08-07T09:56:44.762Z,36.61
2022-08-07T10:00:00.521Z,35.84
2022-08-07T10:04:06.090Z,32.55
2022-08-07T10:06:35.609Z,33.46
2022-08-07T10:09:08.638Z,34.64
2022-08-07T10:12:15.364Z,34.27
2022-08-07T10:15:37.616Z,31.40
2022-08-07T10:18:26.398Z,35.52
2022-08-07T10:22:12.665Z,35.03
2022-08-07T10:24:40.381Z,35.80
2022-08-07T10:27:20.917Z,34.62
2022-08-07T10:30:06.571Z,33.64
2022-08-07T10:32:53.006Z,35.93
2022-08-07T10:35:55.382Z,34.20
2022-08-07T10:38:36.235Z,32.02
2022-08-07T10:41:51.307Z,31.88
2022-08-07T10:44:38.520Z,31.89
2022-08-07T10:47:26.093Z,33.42
2022-08-07T10:50:19.932Z,34.45
2022-08-07T10:53:07.932Z,36.59
2022-08-07T10:55:50.714Z,38.26
2022-08-07T10:58:36.710Z,34.39
2022-08-07T11:01:22.287Z,35.86
2022-08-07T11:04:23.192Z,37.28
2022-08-07T11:08:00.745Z,38.74
2022-08-07T11:10:32.626Z,38.84
2022-08-07T11:13:04.451Z,39.50
2022-08-07T11:15:36.522Z,35.29
2022-08-07T11:18:17.744Z,35.66
2022-08-07T11:21:05.266Z,35.42
2022-08-07T11:23:45.446Z,34.82
2022-08-07T11:26:18.171Z,32.79
2022-08-07T11:28:55.431Z,37.60
2022-08-07T11:31:35.275Z,37.37
2022-08-07T11:34:25.589Z,37.65
2022-08-07T11:37:00.636Z,36.34
2022-08-07T11:39:59.220Z,35.11
2022-08-07T11:42:34.392Z,35.36
2022-08-07T11:45:23.749Z,34.72
2022-08-07T11:48:35.517Z,34.12
2022-08-07T11:51:41.270Z,32.20
2022-08-07T11:54:54.843Z,34.46
2022-08-07T11:57:59.385Z,33.49
2022-08-07T12:00:54.990Z,33.77
2022-08-07T12:03:52.129Z,36.10
2022-08-07T12:06:39.086Z,34.97
2022-08-07T12:09:25.439Z,38.17
2022-08-07T12:12:16.333Z,37.08
2022-08-07T12:15:35.904Z,34.46
2022-08-07T12:18:08.057Z,34.01
2022-08-07T12:21:14.987Z,34.71
2022-08-07T12:24:06.249Z,34.57
2022-08-07T12:27:03.501Z,33.30
2022-08-07T12:29:47.819Z,32.17
2022-08-07T12:32:30.784Z,33.10
2022-08-07T12:34:58.946Z,34.72
2022-08-07T12:38:09.066Z,32.80
2022-08-07T12:40:46.700Z,35.47
2022-08-07T12:43:10.319Z,35.98
2022-08-07T12:45:59.006Z,35.60
2022-08-07T12:48:52.830Z,37.07
2022-08-07T12:51:33.132Z,35.13
2022-08-07T12:54:38.558Z,31.48
2022-08-07T12:57:09.673Z,30.98
2022-08-07T12:59:55.164Z,32.28
2022-08-07T13:02:49.441Z,31.12
2022-08-07T13:06:02.896Z,31.48
2022-08-07T13:08:34.033Z,30.63
2022-08-07T13:11:25.246Z,30.14
2022-08-07T13:14:04.137Z,29.22
2022-08-07T13:16:56.467Z,31.18
2022-08-07T13:19:50.581Z,31.80
2022-08-07T13:22:33.256Z,32.91
2022-08-07T13:25:09.783Z,33.05
2022-08-07T13:28:13.464Z,34.90
2022-08-07T13:30:49.138Z,35.25
2022-08-07T13:34:34.442Z,37.07
2022-08-07T13:36:26.957Z,34.14
2022-08-07T13:38:57.238Z,36.79
2022-08-07T13:41:42.887Z,34.65
2022-08-07T13:44:19.024Z,31.89
2022-08-07T13:46:57.027Z,32.76
2022-08-07T13:50:34.993Z,34.13
2022-08-07T13:52:26.476Z,35.95
2022-08-07T13:55:00.646Z,36.89
2022-08-07T13:57:38.123Z,38.51
2022-08-07T14:00:26.047Z,37.76
2022-08-07T14:02:56.713Z,35.76
2022-08-07T14:05:37.279Z,37.67
2022-08-07T14:08:07.997Z,39.23
2022-08-07T14:10:42.251Z,37.33
2022-08-07T14:13:17.945Z,36.29
2022-08-07T14:15:52.533Z,37.66
2022-08-07T14:18:34.901Z,37.09
2022-08-07T14:21:21.018Z,38.79
2022-08-07T14:24:28.509Z,38.59
2022-08-07T14:28:09.407Z,37.43
2022-08-07T14:30:05.164Z,39.45
2022-08-07T14:32:58.756Z,40.87
2022-08-07T14:35:45.158Z,38.33
2022-08-07T14:38:26.248Z,36.24
2022-08-07T14:41:14.939Z,38.75
2022-08-07T14:43:58.429Z,37.64
2022-08-07T14:46:33.520Z,38.41
2022-08-07T14:49:17.368Z,36.96
2022-08-07T14:52:04.280Z,37.30
2022-08-07T14:54:42.947Z,35.83
2022-08-07T14:57:15.034Z,35.65
2022-08-07T15:00:05.782Z,36.84
2022-08-07T15:05:23.606Z,32.92
2022-08-07T15:07:52.164Z,34.50
2022-08-07T15:12:54.810Z,36.70
2022-08-07T15:15:38.412Z,37.97
2022-08-07T15:18:14.576Z,35.50
2022-08-07T15:25:12.690Z,35.48
2022-08-07T15:26:22.654Z,34.46
2022-08-07T15:30:03.543Z,34.60
2022-08-07T15:34:36.952Z,35.07
2022-08-07T15:37:06.755Z,36.21
2022-08-07T15:48:36.101Z,37.61
2022-08-07T15:54:12.489Z,36.88
2022-08-07T15:56:41.815Z,36.75
2022-08-07T15:59:17.306Z,36.26
2022-08-07T16:02:01.987Z,35.10
2022-08-07T16:04:32.154Z,36.94
2022-08-07T16:07:04.698Z,35.88
2022-08-07T16:10:09.529Z,36.49
2022-08-07T16:13:04.760Z,37.08
2022-08-07T16:15:57.523Z,37.42
2022-08-07T16:18:49.796Z,37.82
2022-08-07T16:22:02.104Z,37.99
2022-08-07T16:24:52.512Z,38.60
2022-08-07T16:27:39.788Z,39.50
2022-08-07T16:30:29.499Z,38.19
2022-08-07T16:34:03.256Z,37.73
2022-08-07T16:36:31.226Z,38.02
2022-08-07T16:39:49.428Z,37.76
2022-08-07T16:42:39.817Z,38.95
2022-08-07T16:46:40.725Z,38.29
2022-08-07T16:48:34.473Z,39.45
2022-08-07T16:51:54.421Z,38.64
2022-08-07T16:54:35.098Z,39.86
2022-08-07T16:58:02.436Z,39.99
2022-08-07T17:00:29.683Z,39.37
2022-08-07T17:03:09.971Z,40.07
2022-08-07T17:06:28.926Z,39.42
2022-08-07T17:09:13.861Z,39.51
2022-08-07T17:12:01.799Z,40.01
2022-08-07T17:15:19.673Z,39.34
2022-08-07T17:17:47.368Z,39.05
2022-08-07T17:20:35.721Z,39.42
2022-08-07T17:23:22.936Z,39.40
2022-08-07T17:26:23.618Z,40.16
2022-08-07T17:30:13.018Z,39.74
2022-08-07T17:32:30.686Z,41.13
2022-08-07T17:35:50.983Z,41.73
2022-08-07T17:38:18.831Z,41.13
2022-08-07T17:42:02.415Z,40.03
2022-08-07T17:44:16.501Z,40.02
2022-08-07T17:47:04.556Z,40.84
2022-08-07T17:49:44.791Z,41.76
2022-08-07T17:52:35.044Z,40.63
2022-08-07T17:55:16.654Z,40.36
2022-08-07T17:58:05.501Z,39.64
2022-08-07T18:00:48.495Z,39.56
2022-08-07T18:04:04.326Z,39.42
2022-08-07T18:06:38.293Z,38.49
2022-08-07T18:09:08.521Z,42.56
2022-08-07T18:12:07.680Z,43.40
2022-08-07T18:14:46.667Z,39.87
2022-08-07T18:18:46.566Z,39.84
2022-08-07T18:21:03.994Z,40.57
2022-08-07T18:23:43.829Z,40.06
2022-08-07T18:26:21.059Z,40.50
2022-08-07T18:30:07.659Z,40.05
2022-08-07T18:32:24.503Z,39.79
2022-08-07T18:35:17.306Z,40.69
2022-08-07T18:38:58.252Z,41.10
2022-08-07T18:41:21.124Z,40.76
2022-08-07T18:44:03.836Z,42.33
2022-08-07T18:46:49.416Z,43.24
2022-08-07T18:50:31.092Z,43.29
2022-08-07T18:52:54.272Z,42.21
2022-08-07T18:55:56.229Z,43.00
2022-08-07T18:58:51.145Z,43.00
2022-08-07T19:02:18.842Z,43.58
2022-08-07T19:05:14.928Z,44.91
2022-08-07T19:07:58.186Z,43.73
2022-08-07T19:10:31.796Z,43.35
2022-08-07T19:13:33.833Z,43.63
2022-08-07T19:17:04.639Z,43.31
2022-08-07T19:19:13.200Z,45.92
2022-08-07T19:21:56.898Z,43.78
2022-08-07T19:24:43.457Z,43.62
2022-08-07T19:29:02.803Z,42.33
2022-08-07T19:31:05.330Z,41.08
2022-08-07T19:33:10.145Z,41.73
2022-08-07T19:35:44.486Z,41.02
2022-08-07T19:38:16.866Z,42.38
2022-08-07T19:40:49.579Z,42.66
2022-08-07T19:43:43.758Z,41.45
2022-08-07T19:46:26.571Z,41.38
2022-08-07T19:49:17.891Z,42.84
2022-08-07T19:52:05.481Z,41.07
2022-08-07T19:54:56.745Z,42.78
2022-08-07T19:58:12.604Z,42.31
2022-08-07T20:00:53.973Z,42.08
2022-08-07T20:03:35.296Z,42.17
2022-08-07T20:06:05.057Z,40.49
2022-08-07T20:08:34.741Z,39.25
2022-08-07T20:11:09.639Z,39.18
2022-08-07T20:13:49.927Z,39.07
2022-08-07T20:16:36.835Z,41.45
2022-08-07T20:19:10.157Z,39.61
2022-08-07T20:21:42.235Z,40.87
2022-08-07T20:24:23.550Z,40.82
2022-08-07T20:26:57.458Z,40.17
2022-08-07T20:29:48.671Z,41.21
2022-08-07T20:32:40.409Z,40.81
2022-08-07T20:35:15.898Z,42.29
2022-08-07T20:37:59.246Z,43.33
2022-08-07T20:40:31.630Z,42.08
2022-08-07T20:43:01.386Z,43.57
2022-08-07T20:45:33.281Z,42.63
2022-08-07T20:48:28.295Z,42.97
2022-08-07T20:51:00.961Z,43.41
2022-08-07T20:54:01.966Z,42.57
2022-08-07T20:56:16.125Z,42.38
2022-08-07T20:58:46.679Z,42.18
2022-08-07T21:01:19.999Z,42.47
2022-08-07T21:04:18.833Z,42.44
2022-08-07T21:06:38.489Z,42.90
2022-08-07T21:09:14.029Z,44.79
2022-08-07T21:11:50.531Z,44.41
2022-08-07T21:14:31.973Z,44.15
2022-08-07T21:18:01.875Z,46.44
2022-08-07T21:19:51.246Z,45.01
2022-08-07T21:22:29.155Z,44.31
2022-08-07T21:25:12.027Z,44.56
2022-08-07T21:27:58.888Z,45.55
2022-08-07T21:31:01.091Z,44.75
2022-08-07T21:33:41.884Z,43.99
2022-08-07T21:36:31.493Z,44.46
2022-08-07T21:39:47.952Z,41.92
2022-08-07T21:42:46.580Z,41.29
2022-08-07T21:46:09.032Z,41.29
2022-08-07T21:48:34.343Z,42.16
2022-08-07T21:51:20.417Z,43.86
2022-08-07T21:53:54.307Z,43.63
2022-08-07T21:56:49.203Z,45.15
2022-08-07T21:59:36.320Z,43.17
2022-08-07T22:02:27.805Z,42.09
2022-08-07T22:04:59.403Z,44.10
2022-08-07T22:07:31.679Z,43.48
2022-08-07T22:10:24.668Z,43.54
2022-08-07T22:12:59.443Z,44.21
2022-08-07T22:16:41.926Z,43.17
2022-08-07T22:18:38.422Z,43.18
2022-08-07T22:21:21.440Z,43.05
2022-08-07T22:24:13.511Z,43.27
2022-08-07T22:27:01.808Z,43.07
2022-08-07T22:29:47.361Z,43.23
2022-08-07T22:32:33.497Z,44.12
2022-08-07T22:35:02.118Z,44.32
2022-08-07T22:38:04.765Z,46.55
2022-08-07T22:41:03.180Z,46.21
2022-08-07T22:43:31.637Z,47.33
2022-08-07T22:46:46.805Z,48.66
2022-08-07T22:50:10.859Z,48.17
2022-08-07T22:54:09.115Z,49.82
2022-08-07T22:56:13.291Z,48.86
2022-08-07T22:59:04.968Z,46.42
2022-08-07T23:01:50.621Z,44.98
2022-08-07T23:04:56.916Z,45.34
2022-08-07T23:07:41.889Z,45.41
2022-08-07T23:10:38.429Z,49.04
2022-08-07T23:13:18.971Z,49.79
2022-08-07T23:16:39.234Z,51.88
2022-08-07T23:20:02.924Z,48.65
2022-08-07T23:22:45.169Z,48.97
2022-08-07T23:25:20.928Z,49.30
2022-08-07T23:28:22.236Z,47.56
2022-08-07T23:31:05.599Z,46.79
2022-08-07T23:34:24.005Z,45.86
2022-08-07T23:37:18.574Z,45.06
2022-08-07T23:39:59.610Z,42.94
2022-08-07T23:42:53.336Z,44.35
2022-08-07T23:46:01.472Z,49.94
2022-08-07T23:48:47.123Z,53.22
2022-08-07T23:53:00.969Z,53.23
2022-08-07T23:54:36.467Z,52.71
2022-08-07T23:57:18.579Z,55.42
